Skip Navigation LinksHome page > Weather > Current weather Skip Navigation Links

Current Weather

Los Angeles Intl, Los Angeles

For information only: do not use for flight planning or navigation.
Latest weather
Observation time Thursday, November 21, 2019 1:53 PM PST
Local time Thursday, November 21, 2019 2:29 PM PST
Flight conditions Visual Meteorological Conditions
Winds
Wind direction West-Southwest (250°)
Wind speed 8 mph
Visibility 10 mi.
Sky condition
Ceiling 3,500 ft. broken clouds
Cloud layer broken clouds 3,500 ft.
Temperature 65°F
Dewpoint 51°F
Altimeter 29.90 in.Hg
Derived measurements
Relative humidity 61%
Density altitude 719 ft.
Sea-level pressure 29.90 in.Hg
Remarks
Automated weather observing station with precipitation discriminator.
METAR KLAX 212153Z 25007KT 10SM BKN035 18/11 A2990 RMK AO2 SLP126 T01830106

Settings

Location code

InnerDrive.Weather 4.0.6770.0 Release CLR 4.0.30319.42000
Copyright ©2018 Inner Drive Technology. All rights reserved. Portions Copyright ©1986-2018 David Braverman.

Find weather

Site navigation


Skip Navigation Links

Place info

Page info

PayPal - The safer, easier way to pay online!

Return home.

Copyright ©2019 Inner Drive Technology. Purveyors of fine, hand-crafted computer software. Page printed 2019-11-21T22:29:12 UTC.